sensor_id;sensor_type;location;lat;lon;timestamp;temperature;humidity
23633;DHT22;11993;48.748;9.166;2024-03-08T00:00:34;3.20;81.40
23633;DHT22;11993;48.748;9.166;2024-03-08T00:03:00;3.20;81.30
23633;DHT22;11993;48.748;9.166;2024-03-08T00:05:27;3.10;81.40
23633;DHT22;11993;48.748;9.166;2024-03-08T00:07:53;3.20;80.90
23633;DHT22;11993;48.748;9.166;2024-03-08T00:10:18;3.00;81.70
23633;DHT22;11993;48.748;9.166;2024-03-08T00:12:46;2.90;81.80
23633;DHT22;11993;48.748;9.166;2024-03-08T00:15:16;3.00;81.80
23633;DHT22;11993;48.748;9.166;2024-03-08T00:17:43;2.90;81.90
23633;DHT22;11993;48.748;9.166;2024-03-08T00:20:09;3.00;81.90
23633;DHT22;11993;48.748;9.166;2024-03-08T00:22:35;3.00;81.50
23633;DHT22;11993;48.748;9.166;2024-03-08T00:25:02;3.00;81.80
23633;DHT22;11993;48.748;9.166;2024-03-08T00:27:28;2.90;81.80
23633;DHT22;11993;48.748;9.166;2024-03-08T00:29:57;2.90;82.00
23633;DHT22;11993;48.748;9.166;2024-03-08T00:32:22;2.90;81.80
23633;DHT22;11993;48.748;9.166;2024-03-08T00:34:50;2.80;82.00
23633;DHT22;11993;48.748;9.166;2024-03-08T00:37:20;2.90;81.80
23633;DHT22;11993;48.748;9.166;2024-03-08T00:39:47;2.90;81.50
23633;DHT22;11993;48.748;9.166;2024-03-08T00:42:13;3.00;81.40
23633;DHT22;11993;48.748;9.166;2024-03-08T00:44:39;2.90;81.50
23633;DHT22;11993;48.748;9.166;2024-03-08T00:47:05;2.90;81.60
23633;DHT22;11993;48.748;9.166;2024-03-08T00:49:31;2.90;81.60
23633;DHT22;11993;48.748;9.166;2024-03-08T00:51:56;2.80;82.00
23633;DHT22;11993;48.748;9.166;2024-03-08T00:54:22;2.80;81.80
23633;DHT22;11993;48.748;9.166;2024-03-08T00:56:47;2.70;81.80
23633;DHT22;11993;48.748;9.166;2024-03-08T00:59:13;2.60;82.20
23633;DHT22;11993;48.748;9.166;2024-03-08T01:01:40;2.60;82.40
23633;DHT22;11993;48.748;9.166;2024-03-08T01:04:06;2.70;81.60
23633;DHT22;11993;48.748;9.166;2024-03-08T01:06:33;2.60;82.00
23633;DHT22;11993;48.748;9.166;2024-03-08T01:08:59;2.60;82.20
23633;DHT22;11993;48.748;9.166;2024-03-08T01:11:24;2.60;82.10
23633;DHT22;11993;48.748;9.166;2024-03-08T01:13:50;2.50;82.30
23633;DHT22;11993;48.748;9.166;2024-03-08T01:16:15;2.50;82.20
23633;DHT22;11993;48.748;9.166;2024-03-08T01:18:43;2.60;82.30
23633;DHT22;11993;48.748;9.166;2024-03-08T01:21:08;2.60;82.00
23633;DHT22;11993;48.748;9.166;2024-03-08T01:23:34;2.60;82.20
23633;DHT22;11993;48.748;9.166;2024-03-08T01:26:00;2.50;82.40
23633;DHT22;11993;48.748;9.166;2024-03-08T01:28:27;2.40;82.90
23633;DHT22;11993;48.748;9.166;2024-03-08T01:30:53;2.40;82.70
23633;DHT22;11993;48.748;9.166;2024-03-08T01:33:25;2.40;82.70
23633;DHT22;11993;48.748;9.166;2024-03-08T01:35:51;2.40;82.90
23633;DHT22;11993;48.748;9.166;2024-03-08T01:38:18;2.60;82.40
23633;DHT22;11993;48.748;9.166;2024-03-08T01:40:43;2.40;82.30
23633;DHT22;11993;48.748;9.166;2024-03-08T01:43:19;2.50;82.30
23633;DHT22;11993;48.748;9.166;2024-03-08T01:45:45;2.40;82.60
23633;DHT22;11993;48.748;9.166;2024-03-08T01:48:10;2.50;82.10
23633;DHT22;11993;48.748;9.166;2024-03-08T01:50:38;2.50;82.30
23633;DHT22;11993;48.748;9.166;2024-03-08T01:53:05;2.30;82.40
23633;DHT22;11993;48.748;9.166;2024-03-08T01:55:31;2.30;82.80
23633;DHT22;11993;48.748;9.166;2024-03-08T01:57:58;2.30;82.60
23633;DHT22;11993;48.748;9.166;2024-03-08T02:00:24;2.20;82.60
23633;DHT22;11993;48.748;9.166;2024-03-08T02:02:54;2.20;82.60
23633;DHT22;11993;48.748;9.166;2024-03-08T02:05:20;2.30;82.50
23633;DHT22;11993;48.748;9.166;2024-03-08T02:07:45;2.20;82.20
23633;DHT22;11993;48.748;9.166;2024-03-08T02:10:11;2.20;82.50
23633;DHT22;11993;48.748;9.166;2024-03-08T02:12:38;2.10;82.50
23633;DHT22;11993;48.748;9.166;2024-03-08T02:15:04;2.20;82.40
23633;DHT22;11993;48.748;9.166;2024-03-08T02:17:32;2.10;82.50
23633;DHT22;11993;48.748;9.166;2024-03-08T02:19:59;2.10;82.10
23633;DHT22;11993;48.748;9.166;2024-03-08T02:22:30;2.10;81.90
23633;DHT22;11993;48.748;9.166;2024-03-08T02:24:56;2.00;82.10
23633;DHT22;11993;48.748;9.166;2024-03-08T02:27:25;2.00;82.10
23633;DHT22;11993;48.748;9.166;2024-03-08T02:29:52;1.90;82.30
23633;DHT22;11993;48.748;9.166;2024-03-08T02:32:21;1.90;82.30
23633;DHT22;11993;48.748;9.166;2024-03-08T02:34:47;1.80;82.50
23633;DHT22;11993;48.748;9.166;2024-03-08T02:37:13;1.80;82.40
23633;DHT22;11993;48.748;9.166;2024-03-08T02:39:38;1.90;82.40
23633;DHT22;11993;48.748;9.166;2024-03-08T02:42:04;1.90;82.10
23633;DHT22;11993;48.748;9.166;2024-03-08T02:44:29;1.80;82.30
23633;DHT22;11993;48.748;9.166;2024-03-08T02:46:55;1.80;82.20
23633;DHT22;11993;48.748;9.166;2024-03-08T02:49:21;1.70;82.60
23633;DHT22;11993;48.748;9.166;2024-03-08T02:51:46;1.70;82.30
23633;DHT22;11993;48.748;9.166;2024-03-08T02:54:12;1.80;82.10
23633;DHT22;11993;48.748;9.166;2024-03-08T02:56:37;1.80;82.20
23633;DHT22;11993;48.748;9.166;2024-03-08T02:59:03;1.70;82.20
23633;DHT22;11993;48.748;9.166;2024-03-08T03:01:28;1.70;82.40
23633;DHT22;11993;48.748;9.166;2024-03-08T03:03:54;1.70;82.10
23633;DHT22;11993;48.748;9.166;2024-03-08T03:06:19;1.90;81.90
23633;DHT22;11993;48.748;9.166;2024-03-08T03:08:46;1.60;82.50
23633;DHT22;11993;48.748;9.166;2024-03-08T03:11:12;1.70;82.30
23633;DHT22;11993;48.748;9.166;2024-03-08T03:13:39;1.70;82.40
23633;DHT22;11993;48.748;9.166;2024-03-08T03:16:05;1.80;82.10
23633;DHT22;11993;48.748;9.166;2024-03-08T03:18:30;1.60;82.70
23633;DHT22;11993;48.748;9.166;2024-03-08T03:20:58;1.60;82.90
23633;DHT22;11993;48.748;9.166;2024-03-08T03:23:24;1.60;82.80
23633;DHT22;11993;48.748;9.166;2024-03-08T03:25:51;1.60;83.30
23633;DHT22;11993;48.748;9.166;2024-03-08T03:28:17;1.50;83.00
23633;DHT22;11993;48.748;9.166;2024-03-08T03:30:47;1.40;83.60
23633;DHT22;11993;48.748;9.166;2024-03-08T03:33:12;1.60;83.30
23633;DHT22;11993;48.748;9.166;2024-03-08T03:35:40;1.50;83.20
23633;DHT22;11993;48.748;9.166;2024-03-08T03:38:06;1.40;83.50
23633;DHT22;11993;48.748;9.166;2024-03-08T03:40:36;1.30;83.60
23633;DHT22;11993;48.748;9.166;2024-03-08T03:43:02;1.40;83.60
23633;DHT22;11993;48.748;9.166;2024-03-08T03:45:28;1.50;83.60
23633;DHT22;11993;48.748;9.166;2024-03-08T03:47:54;1.50;83.30
23633;DHT22;11993;48.748;9.166;2024-03-08T03:50:20;1.40;83.70
23633;DHT22;11993;48.748;9.166;2024-03-08T03:52:46;1.40;83.60
23633;DHT22;11993;48.748;9.166;2024-03-08T03:55:13;1.30;84.00
23633;DHT22;11993;48.748;9.166;2024-03-08T03:57:39;1.30;84.10
23633;DHT22;11993;48.748;9.166;2024-03-08T04:00:05;1.30;84.20
23633;DHT22;11993;48.748;9.166;2024-03-08T04:02:31;1.30;84.20
23633;DHT22;11993;48.748;9.166;2024-03-08T04:04:57;1.20;84.50
23633;DHT22;11993;48.748;9.166;2024-03-08T04:07:22;1.20;84.30
23633;DHT22;11993;48.748;9.166;2024-03-08T04:09:48;1.30;84.40
23633;DHT22;11993;48.748;9.166;2024-03-08T04:12:13;1.20;84.50
23633;DHT22;11993;48.748;9.166;2024-03-08T04:14:42;1.10;84.60
23633;DHT22;11993;48.748;9.166;2024-03-08T04:17:08;1.20;84.70
23633;DHT22;11993;48.748;9.166;2024-03-08T04:19:37;1.10;85.00
23633;DHT22;11993;48.748;9.166;2024-03-08T04:22:03;1.10;85.00
23633;DHT22;11993;48.748;9.166;2024-03-08T04:24:28;1.10;85.00
23633;DHT22;11993;48.748;9.166;2024-03-08T04:26:56;1.10;85.20
23633;DHT22;11993;48.748;9.166;2024-03-08T04:29:22;1.10;85.10
23633;DHT22;11993;48.748;9.166;2024-03-08T04:31:47;1.10;85.10
23633;DHT22;11993;48.748;9.166;2024-03-08T04:34:13;1.10;85.10
23633;DHT22;11993;48.748;9.166;2024-03-08T04:36:38;1.10;85.00
23633;DHT22;11993;48.748;9.166;2024-03-08T04:39:04;1.10;85.00
23633;DHT22;11993;48.748;9.166;2024-03-08T04:41:30;1.00;85.10
23633;DHT22;11993;48.748;9.166;2024-03-08T04:43:56;1.10;85.10
23633;DHT22;11993;48.748;9.166;2024-03-08T04:46:23;1.00;85.00
23633;DHT22;11993;48.748;9.166;2024-03-08T04:48:49;1.00;85.10
23633;DHT22;11993;48.748;9.166;2024-03-08T04:51:14;0.90;85.40
23633;DHT22;11993;48.748;9.166;2024-03-08T04:53:41;0.90;85.50
23633;DHT22;11993;48.748;9.166;2024-03-08T04:56:06;1.00;85.40
23633;DHT22;11993;48.748;9.166;2024-03-08T04:58:35;1.00;85.50
23633;DHT22;11993;48.748;9.166;2024-03-08T05:01:01;0.90;85.70
23633;DHT22;11993;48.748;9.166;2024-03-08T05:03:27;0.90;85.70
23633;DHT22;11993;48.748;9.166;2024-03-08T05:05:53;0.90;85.60
23633;DHT22;11993;48.748;9.166;2024-03-08T05:08:18;1.00;85.20
23633;DHT22;11993;48.748;9.166;2024-03-08T05:10:45;1.00;85.30
23633;DHT22;11993;48.748;9.166;2024-03-08T05:13:10;0.90;85.80
23633;DHT22;11993;48.748;9.166;2024-03-08T05:15:36;1.00;85.60
23633;DHT22;11993;48.748;9.166;2024-03-08T05:18:02;1.00;85.40
23633;DHT22;11993;48.748;9.166;2024-03-08T05:20:27;0.90;85.60
23633;DHT22;11993;48.748;9.166;2024-03-08T05:22:53;0.90;85.80
23633;DHT22;11993;48.748;9.166;2024-03-08T05:25:18;0.80;85.90
23633;DHT22;11993;48.748;9.166;2024-03-08T05:27:44;0.70;86.00
23633;DHT22;11993;48.748;9.166;2024-03-08T05:30:09;0.70;86.00
23633;DHT22;11993;48.748;9.166;2024-03-08T05:32:41;0.80;85.90
23633;DHT22;11993;48.748;9.166;2024-03-08T05:35:10;0.80;86.00
23633;DHT22;11993;48.748;9.166;2024-03-08T05:37:36;0.90;85.80
23633;DHT22;11993;48.748;9.166;2024-03-08T05:40:02;0.70;86.10
23633;DHT22;11993;48.748;9.166;2024-03-08T05:42:28;0.80;86.20
23633;DHT22;11993;48.748;9.166;2024-03-08T05:44:54;0.70;86.30
23633;DHT22;11993;48.748;9.166;2024-03-08T05:47:22;0.80;86.00
23633;DHT22;11993;48.748;9.166;2024-03-08T05:49:48;0.80;86.00
23633;DHT22;11993;48.748;9.166;2024-03-08T05:52:13;0.70;86.30
23633;DHT22;11993;48.748;9.166;2024-03-08T05:54:39;0.70;86.50
23633;DHT22;11993;48.748;9.166;2024-03-08T05:57:06;0.80;86.10
23633;DHT22;11993;48.748;9.166;2024-03-08T05:59:31;0.80;86.20
23633;DHT22;11993;48.748;9.166;2024-03-08T06:01:57;0.80;86.20
23633;DHT22;11993;48.748;9.166;2024-03-08T06:04:23;0.80;85.90
23633;DHT22;11993;48.748;9.166;2024-03-08T06:06:48;0.90;86.00
23633;DHT22;11993;48.748;9.166;2024-03-08T06:09:17;1.00;85.50
23633;DHT22;11993;48.748;9.166;2024-03-08T06:11:48;0.90;85.70
23633;DHT22;11993;48.748;9.166;2024-03-08T06:14:13;0.90;85.90
23633;DHT22;11993;48.748;9.166;2024-03-08T06:16:44;0.90;85.90
23633;DHT22;11993;48.748;9.166;2024-03-08T06:19:09;0.90;85.90
23633;DHT22;11993;48.748;9.166;2024-03-08T06:21:35;1.00;85.70
23633;DHT22;11993;48.748;9.166;2024-03-08T06:24:01;1.30;85.00
23633;DHT22;11993;48.748;9.166;2024-03-08T06:26:27;1.30;84.50
23633;DHT22;11993;48.748;9.166;2024-03-08T06:28:54;1.30;84.80
23633;DHT22;11993;48.748;9.166;2024-03-08T06:31:19;1.20;84.50
23633;DHT22;11993;48.748;9.166;2024-03-08T06:33:45;1.20;84.50
23633;DHT22;11993;48.748;9.166;2024-03-08T06:36:11;1.40;84.30
23633;DHT22;11993;48.748;9.166;2024-03-08T06:38:38;1.40;84.20
23633;DHT22;11993;48.748;9.166;2024-03-08T06:41:08;1.30;84.50
23633;DHT22;11993;48.748;9.166;2024-03-08T06:43:34;1.40;84.30
23633;DHT22;11993;48.748;9.166;2024-03-08T06:46:00;1.40;83.90
23633;DHT22;11993;48.748;9.166;2024-03-08T06:48:25;1.40;84.20
23633;DHT22;11993;48.748;9.166;2024-03-08T06:50:51;1.40;84.50
23633;DHT22;11993;48.748;9.166;2024-03-08T06:53:16;1.40;84.60
23633;DHT22;11993;48.748;9.166;2024-03-08T06:55:45;1.40;84.50
23633;DHT22;11993;48.748;9.166;2024-03-08T06:58:10;1.50;84.80
23633;DHT22;11993;48.748;9.166;2024-03-08T07:00:37;1.50;84.00
23633;DHT22;11993;48.748;9.166;2024-03-08T07:03:02;1.60;84.20
23633;DHT22;11993;48.748;9.166;2024-03-08T07:05:29;1.50;84.10
23633;DHT22;11993;48.748;9.166;2024-03-08T07:07:54;1.60;84.20
23633;DHT22;11993;48.748;9.166;2024-03-08T07:10:22;1.60;83.90
23633;DHT22;11993;48.748;9.166;2024-03-08T07:12:51;1.60;84.20
23633;DHT22;11993;48.748;9.166;2024-03-08T07:15:18;1.60;84.20
23633;DHT22;11993;48.748;9.166;2024-03-08T07:17:45;1.70;83.80
23633;DHT22;11993;48.748;9.166;2024-03-08T07:20:12;1.70;83.40
23633;DHT22;11993;48.748;9.166;2024-03-08T07:22:39;1.90;83.10
23633;DHT22;11993;48.748;9.166;2024-03-08T07:25:05;1.80;83.00
23633;DHT22;11993;48.748;9.166;2024-03-08T07:30:12;1.70;83.40
23633;DHT22;11993;48.748;9.166;2024-03-08T07:32:58;1.70;83.40
23633;DHT22;11993;48.748;9.166;2024-03-08T07:35:24;1.90;83.10
23633;DHT22;11993;48.748;9.166;2024-03-08T07:37:52;1.80;83.50
23633;DHT22;11993;48.748;9.166;2024-03-08T07:40:21;2.00;83.40
23633;DHT22;11993;48.748;9.166;2024-03-08T07:42:46;2.20;82.90
23633;DHT22;11993;48.748;9.166;2024-03-08T07:45:12;2.20;82.60
23633;DHT22;11993;48.748;9.166;2024-03-08T07:47:38;2.10;82.60
23633;DHT22;11993;48.748;9.166;2024-03-08T07:50:04;2.30;82.20
23633;DHT22;11993;48.748;9.166;2024-03-08T07:52:30;2.20;81.90
23633;DHT22;11993;48.748;9.166;2024-03-08T07:54:55;2.10;82.30
23633;DHT22;11993;48.748;9.166;2024-03-08T07:57:21;2.30;82.30
23633;DHT22;11993;48.748;9.166;2024-03-08T07:59:46;2.10;82.80
23633;DHT22;11993;48.748;9.166;2024-03-08T08:02:12;2.20;82.20
23633;DHT22;11993;48.748;9.166;2024-03-08T08:04:38;2.10;82.20
23633;DHT22;11993;48.748;9.166;2024-03-08T08:07:04;2.20;82.40
23633;DHT22;11993;48.748;9.166;2024-03-08T08:09:30;2.20;82.00
23633;DHT22;11993;48.748;9.166;2024-03-08T08:12:02;2.40;81.60
23633;DHT22;11993;48.748;9.166;2024-03-08T08:14:29;2.30;81.30
23633;DHT22;11993;48.748;9.166;2024-03-08T08:16:55;2.40;81.40
23633;DHT22;11993;48.748;9.166;2024-03-08T08:19:22;2.20;81.70
23633;DHT22;11993;48.748;9.166;2024-03-08T08:21:48;2.20;81.80
23633;DHT22;11993;48.748;9.166;2024-03-08T08:24:14;2.40;81.50
23633;DHT22;11993;48.748;9.166;2024-03-08T08:26:40;2.50;81.00
23633;DHT22;11993;48.748;9.166;2024-03-08T08:29:07;2.40;81.00
23633;DHT22;11993;48.748;9.166;2024-03-08T08:31:32;2.60;80.90
23633;DHT22;11993;48.748;9.166;2024-03-08T08:33:58;2.50;81.00
23633;DHT22;11993;48.748;9.166;2024-03-08T08:36:25;2.30;80.90
23633;DHT22;11993;48.748;9.166;2024-03-08T08:38:51;2.40;81.20
23633;DHT22;11993;48.748;9.166;2024-03-08T08:41:19;2.40;81.20
23633;DHT22;11993;48.748;9.166;2024-03-08T08:43:46;2.60;80.70
23633;DHT22;11993;48.748;9.166;2024-03-08T08:46:12;2.60;81.00
23633;DHT22;11993;48.748;9.166;2024-03-08T08:48:39;2.60;80.80
23633;DHT22;11993;48.748;9.166;2024-03-08T08:51:09;2.50;81.40
23633;DHT22;11993;48.748;9.166;2024-03-08T08:53:38;2.70;81.10
23633;DHT22;11993;48.748;9.166;2024-03-08T08:56:06;2.80;80.80
23633;DHT22;11993;48.748;9.166;2024-03-08T08:58:33;2.70;81.00
23633;DHT22;11993;48.748;9.166;2024-03-08T09:00:59;2.60;81.30
23633;DHT22;11993;48.748;9.166;2024-03-08T09:03:25;2.70;80.90
23633;DHT22;11993;48.748;9.166;2024-03-08T09:05:52;2.90;80.50
23633;DHT22;11993;48.748;9.166;2024-03-08T09:08:18;3.10;79.80
23633;DHT22;11993;48.748;9.166;2024-03-08T09:10:43;2.90;80.30
23633;DHT22;11993;48.748;9.166;2024-03-08T09:13:09;2.90;80.10
23633;DHT22;11993;48.748;9.166;2024-03-08T09:15:36;2.80;80.40
23633;DHT22;11993;48.748;9.166;2024-03-08T09:18:04;2.60;80.70
23633;DHT22;11993;48.748;9.166;2024-03-08T09:20:31;2.80;80.20
23633;DHT22;11993;48.748;9.166;2024-03-08T09:22:57;3.10;79.60
23633;DHT22;11993;48.748;9.166;2024-03-08T09:25:23;3.00;79.60
23633;DHT22;11993;48.748;9.166;2024-03-08T09:27:48;3.10;79.30
23633;DHT22;11993;48.748;9.166;2024-03-08T09:30:15;3.10;79.20
23633;DHT22;11993;48.748;9.166;2024-03-08T09:32:41;3.10;79.30
23633;DHT22;11993;48.748;9.166;2024-03-08T09:35:07;3.10;79.50
23633;DHT22;11993;48.748;9.166;2024-03-08T09:37:33;3.10;79.30
23633;DHT22;11993;48.748;9.166;2024-03-08T09:39:59;3.10;79.70
23633;DHT22;11993;48.748;9.166;2024-03-08T09:42:25;3.00;79.40
23633;DHT22;11993;48.748;9.166;2024-03-08T09:44:50;3.20;79.30
23633;DHT22;11993;48.748;9.166;2024-03-08T09:47:18;3.00;79.20
23633;DHT22;11993;48.748;9.166;2024-03-08T09:49:44;3.10;79.40
23633;DHT22;11993;48.748;9.166;2024-03-08T09:52:10;3.10;79.10
23633;DHT22;11993;48.748;9.166;2024-03-08T09:54:36;3.20;79.20
23633;DHT22;11993;48.748;9.166;2024-03-08T09:57:04;3.40;78.90
23633;DHT22;11993;48.748;9.166;2024-03-08T09:59:30;3.40;78.90
23633;DHT22;11993;48.748;9.166;2024-03-08T10:02:14;3.30;78.90
23633;DHT22;11993;48.748;9.166;2024-03-08T10:04:40;3.30;78.70
23633;DHT22;11993;48.748;9.166;2024-03-08T10:07:08;3.40;79.00
23633;DHT22;11993;48.748;9.166;2024-03-08T10:09:34;3.70;77.90
23633;DHT22;11993;48.748;9.166;2024-03-08T10:11:59;3.60;77.70
23633;DHT22;11993;48.748;9.166;2024-03-08T10:14:25;3.50;78.50
23633;DHT22;11993;48.748;9.166;2024-03-08T10:16:54;3.80;78.20
23633;DHT22;11993;48.748;9.166;2024-03-08T10:19:20;3.80;77.90
23633;DHT22;11993;48.748;9.166;2024-03-08T10:21:52;3.70;77.30
23633;DHT22;11993;48.748;9.166;2024-03-08T10:24:29;3.60;77.50
23633;DHT22;11993;48.748;9.166;2024-03-08T10:27:01;3.70;77.30
23633;DHT22;11993;48.748;9.166;2024-03-08T10:29:33;3.70;77.40
23633;DHT22;11993;48.748;9.166;2024-03-08T10:31:59;3.80;77.40
23633;DHT22;11993;48.748;9.166;2024-03-08T10:34:25;3.80;77.70
23633;DHT22;11993;48.748;9.166;2024-03-08T10:36:51;3.70;77.60
23633;DHT22;11993;48.748;9.166;2024-03-08T10:39:23;3.80;77.70
23633;DHT22;11993;48.748;9.166;2024-03-08T10:41:56;3.80;76.70
23633;DHT22;11993;48.748;9.166;2024-03-08T10:47:00;3.60;77.60
23633;DHT22;11993;48.748;9.166;2024-03-08T10:49:32;4.00;76.70
23633;DHT22;11993;48.748;9.166;2024-03-08T10:52:02;4.40;75.60
23633;DHT22;11993;48.748;9.166;2024-03-08T10:54:29;4.50;75.60
23633;DHT22;11993;48.748;9.166;2024-03-08T10:56:57;4.50;74.80
23633;DHT22;11993;48.748;9.166;2024-03-08T10:59:24;5.00;74.00
23633;DHT22;11993;48.748;9.166;2024-03-08T11:01:52;5.10;73.20
23633;DHT22;11993;48.748;9.166;2024-03-08T11:04:18;5.20;72.90
23633;DHT22;11993;48.748;9.166;2024-03-08T11:06:48;5.20;72.50
23633;DHT22;11993;48.748;9.166;2024-03-08T11:09:36;5.40;72.40
23633;DHT22;11993;48.748;9.166;2024-03-08T11:12:28;5.50;72.40
23633;DHT22;11993;48.748;9.166;2024-03-08T11:15:01;5.20;71.70
23633;DHT22;11993;48.748;9.166;2024-03-08T11:19:58;5.20;72.40
23633;DHT22;11993;48.748;9.166;2024-03-08T11:22:33;5.20;72.30
23633;DHT22;11993;48.748;9.166;2024-03-08T11:25:03;5.10;72.40
23633;DHT22;11993;48.748;9.166;2024-03-08T11:27:33;5.00;73.20
23633;DHT22;11993;48.748;9.166;2024-03-08T11:30:04;5.40;72.30
23633;DHT22;11993;48.748;9.166;2024-03-08T11:32:38;5.50;72.50
23633;DHT22;11993;48.748;9.166;2024-03-08T11:35:07;5.50;71.80
23633;DHT22;11993;48.748;9.166;2024-03-08T11:37:34;6.20;70.00
23633;DHT22;11993;48.748;9.166;2024-03-08T11:40:01;6.40;69.00
23633;DHT22;11993;48.748;9.166;2024-03-08T11:42:30;7.10;67.70
23633;DHT22;11993;48.748;9.166;2024-03-08T11:44:56;7.20;66.40
23633;DHT22;11993;48.748;9.166;2024-03-08T11:47:22;7.50;65.20
23633;DHT22;11993;48.748;9.166;2024-03-08T11:49:47;7.80;66.00
23633;DHT22;11993;48.748;9.166;2024-03-08T11:52:18;8.10;64.50
23633;DHT22;11993;48.748;9.166;2024-03-08T11:54:54;8.50;63.10
23633;DHT22;11993;48.748;9.166;2024-03-08T11:57:22;7.40;64.70
23633;DHT22;11993;48.748;9.166;2024-03-08T11:59:51;7.80;64.10
23633;DHT22;11993;48.748;9.166;2024-03-08T12:02:17;7.70;64.80
23633;DHT22;11993;48.748;9.166;2024-03-08T12:04:45;7.80;64.70
23633;DHT22;11993;48.748;9.166;2024-03-08T12:07:13;8.30;63.90
23633;DHT22;11993;48.748;9.166;2024-03-08T12:09:42;8.60;61.00
23633;DHT22;11993;48.748;9.166;2024-03-08T12:12:12;8.00;62.80
23633;DHT22;11993;48.748;9.166;2024-03-08T12:14:38;8.70;62.60
23633;DHT22;11993;48.748;9.166;2024-03-08T12:17:04;8.70;61.20
23633;DHT22;11993;48.748;9.166;2024-03-08T12:19:31;9.10;60.50
23633;DHT22;11993;48.748;9.166;2024-03-08T12:22:07;9.60;58.70
23633;DHT22;11993;48.748;9.166;2024-03-08T12:24:34;9.70;58.70
23633;DHT22;11993;48.748;9.166;2024-03-08T12:27:20;10.10;57.80
23633;DHT22;11993;48.748;9.166;2024-03-08T12:29:45;9.90;56.50
23633;DHT22;11993;48.748;9.166;2024-03-08T12:32:12;9.80;58.50
23633;DHT22;11993;48.748;9.166;2024-03-08T12:34:38;9.40;58.50
23633;DHT22;11993;48.748;9.166;2024-03-08T12:37:05;8.90;60.20
23633;DHT22;11993;48.748;9.166;2024-03-08T12:39:32;10.10;57.00
23633;DHT22;11993;48.748;9.166;2024-03-08T12:41:58;10.20;56.60
23633;DHT22;11993;48.748;9.166;2024-03-08T12:44:24;10.00;58.10
23633;DHT22;11993;48.748;9.166;2024-03-08T12:46:51;10.80;56.10
23633;DHT22;11993;48.748;9.166;2024-03-08T12:49:17;12.00;52.10
23633;DHT22;11993;48.748;9.166;2024-03-08T12:51:46;10.90;53.00
23633;DHT22;11993;48.748;9.166;2024-03-08T12:54:12;9.70;57.10
23633;DHT22;11993;48.748;9.166;2024-03-08T12:56:37;10.10;57.90
23633;DHT22;11993;48.748;9.166;2024-03-08T12:59:04;11.50;54.70
23633;DHT22;11993;48.748;9.166;2024-03-08T13:01:30;11.50;53.00
23633;DHT22;11993;48.748;9.166;2024-03-08T13:03:59;11.10;53.80
23633;DHT22;11993;48.748;9.166;2024-03-08T13:06:27;11.40;53.50
23633;DHT22;11993;48.748;9.166;2024-03-08T13:08:55;12.00;52.00
23633;DHT22;11993;48.748;9.166;2024-03-08T13:11:21;11.50;53.20
23633;DHT22;11993;48.748;9.166;2024-03-08T13:13:47;11.90;53.20
23633;DHT22;11993;48.748;9.166;2024-03-08T13:16:13;11.60;52.90
23633;DHT22;11993;48.748;9.166;2024-03-08T13:18:43;11.20;53.20
23633;DHT22;11993;48.748;9.166;2024-03-08T13:21:12;12.00;52.10
23633;DHT22;11993;48.748;9.166;2024-03-08T13:23:41;10.90;53.70
23633;DHT22;11993;48.748;9.166;2024-03-08T13:26:11;11.50;52.60
23633;DHT22;11993;48.748;9.166;2024-03-08T13:28:45;11.50;51.60
23633;DHT22;11993;48.748;9.166;2024-03-08T13:31:10;11.90;49.80
23633;DHT22;11993;48.748;9.166;2024-03-08T13:33:37;12.00;50.80
23633;DHT22;11993;48.748;9.166;2024-03-08T13:36:08;11.40;51.10
23633;DHT22;11993;48.748;9.166;2024-03-08T13:38:44;12.20;51.30
23633;DHT22;11993;48.748;9.166;2024-03-08T13:41:14;12.40;49.60
23633;DHT22;11993;48.748;9.166;2024-03-08T13:43:43;12.00;50.90
23633;DHT22;11993;48.748;9.166;2024-03-08T13:46:10;11.00;50.40
23633;DHT22;11993;48.748;9.166;2024-03-08T13:48:36;11.60;51.50
23633;DHT22;11993;48.748;9.166;2024-03-08T13:51:07;12.80;49.50
23633;DHT22;11993;48.748;9.166;2024-03-08T13:53:33;12.00;50.20
23633;DHT22;11993;48.748;9.166;2024-03-08T13:56:02;11.40;52.00
23633;DHT22;11993;48.748;9.166;2024-03-08T13:58:28;11.30;51.20
23633;DHT22;11993;48.748;9.166;2024-03-08T14:00:54;10.70;53.20
23633;DHT22;11993;48.748;9.166;2024-03-08T14:03:35;11.00;51.70
23633;DHT22;11993;48.748;9.166;2024-03-08T14:06:06;11.60;51.20
23633;DHT22;11993;48.748;9.166;2024-03-08T14:08:47;12.60;49.60
23633;DHT22;11993;48.748;9.166;2024-03-08T14:11:20;11.90;50.10
23633;DHT22;11993;48.748;9.166;2024-03-08T14:13:59;12.10;49.80
23633;DHT22;11993;48.748;9.166;2024-03-08T14:16:28;12.20;49.00
23633;DHT22;11993;48.748;9.166;2024-03-08T14:18:57;12.60;49.10
23633;DHT22;11993;48.748;9.166;2024-03-08T14:21:25;11.90;50.30
23633;DHT22;11993;48.748;9.166;2024-03-08T14:23:54;11.20;51.20
23633;DHT22;11993;48.748;9.166;2024-03-08T14:26:51;11.90;50.30
23633;DHT22;11993;48.748;9.166;2024-03-08T14:29:30;11.30;51.50
23633;DHT22;11993;48.748;9.166;2024-03-08T14:32:05;11.10;52.50
23633;DHT22;11993;48.748;9.166;2024-03-08T14:34:54;10.60;54.20
23633;DHT22;11993;48.748;9.166;2024-03-08T14:37:33;11.70;51.80
23633;DHT22;11993;48.748;9.166;2024-03-08T14:40:01;11.10;53.10
23633;DHT22;11993;48.748;9.166;2024-03-08T14:42:45;11.10;52.30
23633;DHT22;11993;48.748;9.166;2024-03-08T14:45:20;11.10;52.70
23633;DHT22;11993;48.748;9.166;2024-03-08T14:47:50;11.20;51.70
23633;DHT22;11993;48.748;9.166;2024-03-08T14:50:20;11.60;52.00
23633;DHT22;11993;48.748;9.166;2024-03-08T14:52:46;11.10;53.10
23633;DHT22;11993;48.748;9.166;2024-03-08T14:55:16;10.60;54.40
23633;DHT22;11993;48.748;9.166;2024-03-08T14:57:59;11.20;53.00
23633;DHT22;11993;48.748;9.166;2024-03-08T15:00:24;11.20;53.10
23633;DHT22;11993;48.748;9.166;2024-03-08T15:02:59;11.30;53.10
23633;DHT22;11993;48.748;9.166;2024-03-08T15:05:30;11.20;53.10
23633;DHT22;11993;48.748;9.166;2024-03-08T15:07:58;11.20;52.40
23633;DHT22;11993;48.748;9.166;2024-03-08T15:10:26;11.20;52.90
23633;DHT22;11993;48.748;9.166;2024-03-08T15:12:54;11.40;53.00
23633;DHT22;11993;48.748;9.166;2024-03-08T15:15:26;11.80;51.70
23633;DHT22;11993;48.748;9.166;2024-03-08T15:17:57;11.40;53.50
23633;DHT22;11993;48.748;9.166;2024-03-08T15:20:25;11.40;52.60
23633;DHT22;11993;48.748;9.166;2024-03-08T15:22:54;11.80;52.50
23633;DHT22;11993;48.748;9.166;2024-03-08T15:25:23;11.50;53.30
23633;DHT22;11993;48.748;9.166;2024-03-08T15:27:54;11.60;52.80
23633;DHT22;11993;48.748;9.166;2024-03-08T15:30:21;10.90;54.20
23633;DHT22;11993;48.748;9.166;2024-03-08T15:32:56;10.70;54.30
23633;DHT22;11993;48.748;9.166;2024-03-08T15:35:23;11.00;53.80
23633;DHT22;11993;48.748;9.166;2024-03-08T15:37:51;10.90;54.80
23633;DHT22;11993;48.748;9.166;2024-03-08T15:40:18;11.00;54.20
23633;DHT22;11993;48.748;9.166;2024-03-08T15:42:47;10.90;54.30
23633;DHT22;11993;48.748;9.166;2024-03-08T15:45:14;11.10;54.20
23633;DHT22;11993;48.748;9.166;2024-03-08T15:47:40;11.30;53.40
23633;DHT22;11993;48.748;9.166;2024-03-08T15:50:05;11.10;54.40
23633;DHT22;11993;48.748;9.166;2024-03-08T15:52:37;10.90;54.80